sensor_id;sensor_type;location;lat;lon;timestamp;P1;durP1;ratioP1;P2;durP2;ratioP2
19231;SDS011;9750;48.730;10.294;2022-11-15T00:00:09;5.90;;;4.70;;
19231;SDS011;9750;48.730;10.294;2022-11-15T00:02:37;5.37;;;4.87;;
19231;SDS011;9750;48.730;10.294;2022-11-15T00:05:04;5.97;;;4.87;;
19231;SDS011;9750;48.730;10.294;2022-11-15T00:07:33;7.27;;;5.00;;
19231;SDS011;9750;48.730;10.294;2022-11-15T00:10:01;7.80;;;4.57;;
19231;SDS011;9750;48.730;10.294;2022-11-15T00:12:28;5.10;;;4.57;;
19231;SDS011;9750;48.730;10.294;2022-11-15T00:14:55;5.70;;;4.53;;
19231;SDS011;9750;48.730;10.294;2022-11-15T00:17:23;4.57;;;3.50;;
19231;SDS011;9750;48.730;10.294;2022-11-15T00:19:50;6.00;;;4.43;;
19231;SDS011;9750;48.730;10.294;2022-11-15T00:22:17;5.93;;;4.03;;
19231;SDS011;9750;48.730;10.294;2022-11-15T00:24:46;6.23;;;3.53;;
19231;SDS011;9750;48.730;10.294;2022-11-15T00:27:14;3.77;;;3.47;;
19231;SDS011;9750;48.730;10.294;2022-11-15T00:29:41;5.60;;;4.03;;
19231;SDS011;9750;48.730;10.294;2022-11-15T00:32:08;4.40;;;4.00;;
19231;SDS011;9750;48.730;10.294;2022-11-15T00:34:36;5.27;;;4.13;;
19231;SDS011;9750;48.730;10.294;2022-11-15T00:37:03;5.93;;;3.87;;
19231;SDS011;9750;48.730;10.294;2022-11-15T00:42:35;4.83;;;4.30;;
19231;SDS011;9750;48.730;10.294;2022-11-15T00:45:03;4.70;;;4.20;;
19231;SDS011;9750;48.730;10.294;2022-11-15T00:47:31;5.60;;;4.23;;
19231;SDS011;9750;48.730;10.294;2022-11-15T00:49:58;5.40;;;4.37;;
19231;SDS011;9750;48.730;10.294;2022-11-15T00:52:25;4.90;;;4.37;;
19231;SDS011;9750;48.730;10.294;2022-11-15T00:54:52;5.30;;;4.33;;
19231;SDS011;9750;48.730;10.294;2022-11-15T00:57:20;4.93;;;4.43;;
19231;SDS011;9750;48.730;10.294;2022-11-15T00:59:49;5.47;;;4.40;;
19231;SDS011;9750;48.730;10.294;2022-11-15T01:02:16;5.07;;;4.17;;
19231;SDS011;9750;48.730;10.294;2022-11-15T01:04:43;5.27;;;4.50;;
19231;SDS011;9750;48.730;10.294;2022-11-15T01:07:11;5.27;;;4.50;;
19231;SDS011;9750;48.730;10.294;2022-11-15T01:09:38;4.97;;;4.47;;
19231;SDS011;9750;48.730;10.294;2022-11-15T01:12:06;6.50;;;5.00;;
19231;SDS011;9750;48.730;10.294;2022-11-15T01:14:33;5.87;;;4.50;;
19231;SDS011;9750;48.730;10.294;2022-11-15T01:17:02;5.07;;;4.67;;
19231;SDS011;9750;48.730;10.294;2022-11-15T01:19:29;5.20;;;4.70;;
19231;SDS011;9750;48.730;10.294;2022-11-15T01:21:56;6.40;;;4.47;;
19231;SDS011;9750;48.730;10.294;2022-11-15T01:24:24;5.27;;;4.77;;
19231;SDS011;9750;48.730;10.294;2022-11-15T01:26:51;8.07;;;5.13;;
19231;SDS011;9750;48.730;10.294;2022-11-15T01:29:18;6.63;;;5.20;;
19231;SDS011;9750;48.730;10.294;2022-11-15T01:31:45;5.83;;;5.23;;
19231;SDS011;9750;48.730;10.294;2022-11-15T01:34:14;6.00;;;4.93;;
19231;SDS011;9750;48.730;10.294;2022-11-15T01:36:42;6.00;;;5.23;;
19231;SDS011;9750;48.730;10.294;2022-11-15T01:39:09;7.37;;;5.63;;
19231;SDS011;9750;48.730;10.294;2022-11-15T01:41:36;8.00;;;5.50;;
19231;SDS011;9750;48.730;10.294;2022-11-15T01:47:06;6.40;;;5.80;;
19231;SDS011;9750;48.730;10.294;2022-11-15T01:49:40;8.83;;;7.93;;
19231;SDS011;9750;48.730;10.294;2022-11-15T01:52:16;10.67;;;8.17;;
19231;SDS011;9750;48.730;10.294;2022-11-15T01:54:46;11.37;;;8.70;;
19231;SDS011;9750;48.730;10.294;2022-11-15T01:57:15;8.60;;;7.63;;
19231;SDS011;9750;48.730;10.294;2022-11-15T01:59:43;8.23;;;7.37;;
19231;SDS011;9750;48.730;10.294;2022-11-15T02:02:12;9.20;;;8.30;;
19231;SDS011;9750;48.730;10.294;2022-11-15T02:04:42;8.53;;;6.33;;
19231;SDS011;9750;48.730;10.294;2022-11-15T02:07:11;9.07;;;6.53;;
19231;SDS011;9750;48.730;10.294;2022-11-15T02:09:41;8.87;;;6.60;;
19231;SDS011;9750;48.730;10.294;2022-11-15T02:12:09;7.30;;;6.43;;
19231;SDS011;9750;48.730;10.294;2022-11-15T02:14:40;8.57;;;6.90;;
19231;SDS011;9750;48.730;10.294;2022-11-15T02:17:16;13.70;;;7.00;;
19231;SDS011;9750;48.730;10.294;2022-11-15T02:23:21;8.63;;;6.77;;
19231;SDS011;9750;48.730;10.294;2022-11-15T02:26:33;9.60;;;6.93;;
19231;SDS011;9750;48.730;10.294;2022-11-15T02:29:49;7.67;;;6.10;;
19231;SDS011;9750;48.730;10.294;2022-11-15T02:32:31;8.47;;;6.60;;
19231;SDS011;9750;48.730;10.294;2022-11-15T02:35:08;6.90;;;6.20;;
19231;SDS011;9750;48.730;10.294;2022-11-15T02:37:44;9.27;;;7.80;;
19231;SDS011;9750;48.730;10.294;2022-11-15T02:40:20;11.37;;;9.23;;
19231;SDS011;9750;48.730;10.294;2022-11-15T02:43:00;11.13;;;8.03;;
19231;SDS011;9750;48.730;10.294;2022-11-15T02:45:51;9.13;;;8.23;;
19231;SDS011;9750;48.730;10.294;2022-11-15T02:48:25;10.00;;;8.20;;
19231;SDS011;9750;48.730;10.294;2022-11-15T02:50:53;9.80;;;8.33;;
19231;SDS011;9750;48.730;10.294;2022-11-15T02:53:23;11.33;;;9.47;;
19231;SDS011;9750;48.730;10.294;2022-11-15T02:55:51;10.70;;;8.80;;
19231;SDS011;9750;48.730;10.294;2022-11-15T02:58:41;10.90;;;8.87;;
19231;SDS011;9750;48.730;10.294;2022-11-15T03:01:31;9.27;;;7.97;;
19231;SDS011;9750;48.730;10.294;2022-11-15T03:04:13;11.07;;;8.20;;
19231;SDS011;9750;48.730;10.294;2022-11-15T03:06:49;9.30;;;8.00;;
19231;SDS011;9750;48.730;10.294;2022-11-15T03:09:23;9.10;;;7.70;;
19231;SDS011;9750;48.730;10.294;2022-11-15T03:11:57;10.73;;;8.67;;
19231;SDS011;9750;48.730;10.294;2022-11-15T03:14:30;10.90;;;9.17;;
19231;SDS011;9750;48.730;10.294;2022-11-15T03:17:03;8.90;;;7.60;;
19231;SDS011;9750;48.730;10.294;2022-11-15T03:19:42;9.80;;;8.17;;
19231;SDS011;9750;48.730;10.294;2022-11-15T03:22:11;9.37;;;8.37;;
19231;SDS011;9750;48.730;10.294;2022-11-15T03:24:43;11.27;;;8.33;;
19231;SDS011;9750;48.730;10.294;2022-11-15T03:27:12;9.57;;;8.53;;
19231;SDS011;9750;48.730;10.294;2022-11-15T03:29:44;8.53;;;7.63;;
19231;SDS011;9750;48.730;10.294;2022-11-15T03:32:14;9.63;;;8.20;;
19231;SDS011;9750;48.730;10.294;2022-11-15T03:34:47;8.83;;;7.80;;
19231;SDS011;9750;48.730;10.294;2022-11-15T03:37:20;9.37;;;8.37;;
19231;SDS011;9750;48.730;10.294;2022-11-15T03:39:53;9.00;;;7.93;;
19231;SDS011;9750;48.730;10.294;2022-11-15T03:42:21;9.77;;;7.70;;
19231;SDS011;9750;48.730;10.294;2022-11-15T03:44:54;10.57;;;8.80;;
19231;SDS011;9750;48.730;10.294;2022-11-15T03:47:27;9.60;;;8.60;;
19231;SDS011;9750;48.730;10.294;2022-11-15T03:50:01;11.37;;;8.87;;
19231;SDS011;9750;48.730;10.294;2022-11-15T03:52:33;9.67;;;8.67;;
19231;SDS011;9750;48.730;10.294;2022-11-15T03:55:02;10.33;;;8.73;;
19231;SDS011;9750;48.730;10.294;2022-11-15T03:57:30;11.40;;;9.80;;
19231;SDS011;9750;48.730;10.294;2022-11-15T03:59:58;13.57;;;9.50;;
19231;SDS011;9750;48.730;10.294;2022-11-15T04:02:25;9.03;;;7.53;;
19231;SDS011;9750;48.730;10.294;2022-11-15T04:04:53;9.50;;;8.50;;
19231;SDS011;9750;48.730;10.294;2022-11-15T04:07:22;10.63;;;9.27;;
19231;SDS011;9750;48.730;10.294;2022-11-15T04:09:49;10.90;;;9.70;;
19231;SDS011;9750;48.730;10.294;2022-11-15T04:12:28;9.10;;;8.20;;
19231;SDS011;9750;48.730;10.294;2022-11-15T04:14:59;9.70;;;8.57;;
19231;SDS011;9750;48.730;10.294;2022-11-15T04:17:35;9.10;;;8.20;;
19231;SDS011;9750;48.730;10.294;2022-11-15T04:22:59;10.20;;;8.47;;
19231;SDS011;9750;48.730;10.294;2022-11-15T04:25:44;12.57;;;9.40;;
19231;SDS011;9750;48.730;10.294;2022-11-15T04:28:12;11.87;;;9.47;;
19231;SDS011;9750;48.730;10.294;2022-11-15T04:30:40;10.20;;;8.20;;
19231;SDS011;9750;48.730;10.294;2022-11-15T04:33:08;8.77;;;7.87;;
19231;SDS011;9750;48.730;10.294;2022-11-15T04:35:36;9.73;;;7.40;;
19231;SDS011;9750;48.730;10.294;2022-11-15T04:38:05;10.23;;;8.70;;
19231;SDS011;9750;48.730;10.294;2022-11-15T04:40:33;8.07;;;7.27;;
19231;SDS011;9750;48.730;10.294;2022-11-15T04:43:00;12.23;;;8.30;;
19231;SDS011;9750;48.730;10.294;2022-11-15T04:45:27;9.37;;;8.33;;
19231;SDS011;9750;48.730;10.294;2022-11-15T04:47:55;9.10;;;8.20;;
19231;SDS011;9750;48.730;10.294;2022-11-15T04:50:22;8.47;;;7.57;;
19231;SDS011;9750;48.730;10.294;2022-11-15T04:52:50;9.97;;;8.73;;
19231;SDS011;9750;48.730;10.294;2022-11-15T04:55:20;9.60;;;7.97;;
19231;SDS011;9750;48.730;10.294;2022-11-15T04:57:47;9.23;;;7.40;;
19231;SDS011;9750;48.730;10.294;2022-11-15T05:00:23;8.63;;;7.60;;
19231;SDS011;9750;48.730;10.294;2022-11-15T05:02:51;10.00;;;7.70;;
19231;SDS011;9750;48.730;10.294;2022-11-15T05:05:35;8.63;;;7.20;;
19231;SDS011;9750;48.730;10.294;2022-11-15T05:08:03;8.97;;;7.77;;
19231;SDS011;9750;48.730;10.294;2022-11-15T05:10:32;7.90;;;7.10;;
19231;SDS011;9750;48.730;10.294;2022-11-15T05:13:00;9.93;;;7.53;;
19231;SDS011;9750;48.730;10.294;2022-11-15T05:15:27;7.13;;;6.33;;
19231;SDS011;9750;48.730;10.294;2022-11-15T05:17:57;8.97;;;7.23;;
19231;SDS011;9750;48.730;10.294;2022-11-15T05:20:25;7.93;;;7.13;;
19231;SDS011;9750;48.730;10.294;2022-11-15T05:22:53;9.10;;;7.73;;
19231;SDS011;9750;48.730;10.294;2022-11-15T05:25:20;10.60;;;8.83;;
19231;SDS011;9750;48.730;10.294;2022-11-15T05:27:49;11.13;;;8.73;;
19231;SDS011;9750;48.730;10.294;2022-11-15T05:30:16;11.03;;;9.77;;
19231;SDS011;9750;48.730;10.294;2022-11-15T05:32:44;14.13;;;11.20;;
19231;SDS011;9750;48.730;10.294;2022-11-15T05:35:12;39.10;;;29.10;;
19231;SDS011;9750;48.730;10.294;2022-11-15T05:37:44;47.50;;;33.93;;
19231;SDS011;9750;48.730;10.294;2022-11-15T05:40:11;79.13;;;57.43;;
19231;SDS011;9750;48.730;10.294;2022-11-15T05:42:39;47.93;;;35.87;;
19231;SDS011;9750;48.730;10.294;2022-11-15T05:45:08;32.27;;;24.57;;
19231;SDS011;9750;48.730;10.294;2022-11-15T05:47:36;26.30;;;20.87;;
19231;SDS011;9750;48.730;10.294;2022-11-15T05:50:05;17.37;;;14.70;;
19231;SDS011;9750;48.730;10.294;2022-11-15T05:52:33;11.67;;;10.57;;
19231;SDS011;9750;48.730;10.294;2022-11-15T05:55:03;12.53;;;9.93;;
19231;SDS011;9750;48.730;10.294;2022-11-15T05:57:33;11.77;;;10.57;;
19231;SDS011;9750;48.730;10.294;2022-11-15T06:03:03;15.90;;;12.57;;
19231;SDS011;9750;48.730;10.294;2022-11-15T06:05:30;16.83;;;13.10;;
19231;SDS011;9750;48.730;10.294;2022-11-15T06:07:57;12.53;;;11.27;;
19231;SDS011;9750;48.730;10.294;2022-11-15T06:10:25;15.37;;;12.37;;
19231;SDS011;9750;48.730;10.294;2022-11-15T06:13:02;16.70;;;14.77;;
19231;SDS011;9750;48.730;10.294;2022-11-15T06:15:31;17.60;;;15.60;;
19231;SDS011;9750;48.730;10.294;2022-11-15T06:18:00;17.37;;;14.33;;
19231;SDS011;9750;48.730;10.294;2022-11-15T06:20:36;16.37;;;14.67;;
19231;SDS011;9750;48.730;10.294;2022-11-15T06:23:03;20.27;;;16.80;;
19231;SDS011;9750;48.730;10.294;2022-11-15T06:25:31;17.07;;;15.23;;
19231;SDS011;9750;48.730;10.294;2022-11-15T06:27:59;19.00;;;15.77;;
19231;SDS011;9750;48.730;10.294;2022-11-15T06:30:26;19.23;;;16.87;;
19231;SDS011;9750;48.730;10.294;2022-11-15T06:32:59;17.70;;;15.87;;
19231;SDS011;9750;48.730;10.294;2022-11-15T06:35:28;19.10;;;15.77;;
19231;SDS011;9750;48.730;10.294;2022-11-15T06:37:56;16.33;;;14.63;;
19231;SDS011;9750;48.730;10.294;2022-11-15T06:40:28;16.90;;;14.97;;
19231;SDS011;9750;48.730;10.294;2022-11-15T06:42:57;18.47;;;16.57;;
19231;SDS011;9750;48.730;10.294;2022-11-15T06:45:25;19.47;;;17.43;;
19231;SDS011;9750;48.730;10.294;2022-11-15T06:47:52;19.07;;;17.13;;
19231;SDS011;9750;48.730;10.294;2022-11-15T06:50:21;17.93;;;16.03;;
19231;SDS011;9750;48.730;10.294;2022-11-15T06:52:49;16.77;;;15.13;;
19231;SDS011;9750;48.730;10.294;2022-11-15T06:55:16;18.47;;;16.07;;
19231;SDS011;9750;48.730;10.294;2022-11-15T06:57:47;18.10;;;16.20;;
19231;SDS011;9750;48.730;10.294;2022-11-15T07:00:16;19.70;;;17.47;;
19231;SDS011;9750;48.730;10.294;2022-11-15T07:02:44;26.83;;;19.70;;
19231;SDS011;9750;48.730;10.294;2022-11-15T07:05:11;28.53;;;21.87;;
19231;SDS011;9750;48.730;10.294;2022-11-15T07:07:41;55.17;;;31.77;;
19231;SDS011;9750;48.730;10.294;2022-11-15T07:10:09;61.27;;;38.87;;
19231;SDS011;9750;48.730;10.294;2022-11-15T07:12:36;43.53;;;33.60;;
19231;SDS011;9750;48.730;10.294;2022-11-15T07:15:04;35.57;;;27.60;;
19231;SDS011;9750;48.730;10.294;2022-11-15T07:17:32;34.47;;;27.47;;
19231;SDS011;9750;48.730;10.294;2022-11-15T07:20:00;23.80;;;19.27;;
19231;SDS011;9750;48.730;10.294;2022-11-15T07:22:27;21.00;;;15.80;;
19231;SDS011;9750;48.730;10.294;2022-11-15T07:24:56;20.03;;;14.80;;
19231;SDS011;9750;48.730;10.294;2022-11-15T07:27:23;18.60;;;14.13;;
19231;SDS011;9750;48.730;10.294;2022-11-15T07:29:50;17.47;;;12.67;;
19231;SDS011;9750;48.730;10.294;2022-11-15T07:32:18;13.70;;;11.93;;
19231;SDS011;9750;48.730;10.294;2022-11-15T07:34:45;18.53;;;14.17;;
19231;SDS011;9750;48.730;10.294;2022-11-15T07:37:13;20.20;;;16.47;;
19231;SDS011;9750;48.730;10.294;2022-11-15T07:42:38;15.20;;;13.40;;
19231;SDS011;9750;48.730;10.294;2022-11-15T07:45:22;18.83;;;16.30;;
19231;SDS011;9750;48.730;10.294;2022-11-15T07:47:52;18.70;;;14.57;;
19231;SDS011;9750;48.730;10.294;2022-11-15T07:50:21;16.67;;;14.47;;
19231;SDS011;9750;48.730;10.294;2022-11-15T07:52:53;15.37;;;13.70;;
19231;SDS011;9750;48.730;10.294;2022-11-15T07:55:21;19.40;;;15.43;;
19231;SDS011;9750;48.730;10.294;2022-11-15T07:57:51;17.63;;;15.83;;
19231;SDS011;9750;48.730;10.294;2022-11-15T08:02:48;19.73;;;17.57;;
19231;SDS011;9750;48.730;10.294;2022-11-15T08:05:16;21.93;;;18.93;;
19231;SDS011;9750;48.730;10.294;2022-11-15T08:07:43;22.73;;;19.90;;
19231;SDS011;9750;48.730;10.294;2022-11-15T08:10:10;21.53;;;18.50;;
19231;SDS011;9750;48.730;10.294;2022-11-15T08:12:39;21.37;;;19.10;;
19231;SDS011;9750;48.730;10.294;2022-11-15T08:15:08;20.40;;;17.77;;
19231;SDS011;9750;48.730;10.294;2022-11-15T08:17:36;24.97;;;21.40;;
19231;SDS011;9750;48.730;10.294;2022-11-15T08:20:03;26.37;;;22.00;;
19231;SDS011;9750;48.730;10.294;2022-11-15T08:22:32;31.17;;;26.63;;
19231;SDS011;9750;48.730;10.294;2022-11-15T08:25:00;31.50;;;28.10;;
19231;SDS011;9750;48.730;10.294;2022-11-15T08:27:27;26.43;;;22.00;;
19231;SDS011;9750;48.730;10.294;2022-11-15T08:29:55;24.73;;;22.23;;
19231;SDS011;9750;48.730;10.294;2022-11-15T08:32:23;21.47;;;19.27;;
19231;SDS011;9750;48.730;10.294;2022-11-15T08:34:51;19.50;;;17.40;;
19231;SDS011;9750;48.730;10.294;2022-11-15T08:37:18;18.53;;;16.60;;
19231;SDS011;9750;48.730;10.294;2022-11-15T08:39:45;18.10;;;16.20;;
19231;SDS011;9750;48.730;10.294;2022-11-15T08:42:13;16.87;;;15.17;;
19231;SDS011;9750;48.730;10.294;2022-11-15T08:44:41;19.33;;;17.53;;
19231;SDS011;9750;48.730;10.294;2022-11-15T08:47:09;23.80;;;21.20;;
19231;SDS011;9750;48.730;10.294;2022-11-15T08:49:40;20.63;;;18.63;;
19231;SDS011;9750;48.730;10.294;2022-11-15T08:52:07;14.83;;;13.37;;
19231;SDS011;9750;48.730;10.294;2022-11-15T08:54:35;14.57;;;13.07;;
19231;SDS011;9750;48.730;10.294;2022-11-15T08:57:02;12.40;;;11.10;;
19231;SDS011;9750;48.730;10.294;2022-11-15T08:59:29;24.97;;;18.70;;
19231;SDS011;9750;48.730;10.294;2022-11-15T09:01:57;20.63;;;14.67;;
19231;SDS011;9750;48.730;10.294;2022-11-15T09:04:24;28.60;;;21.63;;
19231;SDS011;9750;48.730;10.294;2022-11-15T09:06:53;34.63;;;25.53;;
19231;SDS011;9750;48.730;10.294;2022-11-15T09:09:20;31.30;;;23.97;;
19231;SDS011;9750;48.730;10.294;2022-11-15T09:11:47;23.07;;;17.80;;
19231;SDS011;9750;48.730;10.294;2022-11-15T09:14:15;24.20;;;19.47;;
19231;SDS011;9750;48.730;10.294;2022-11-15T09:16:43;17.53;;;14.97;;
19231;SDS011;9750;48.730;10.294;2022-11-15T09:19:10;17.27;;;13.90;;
19231;SDS011;9750;48.730;10.294;2022-11-15T09:21:39;18.43;;;14.23;;
19231;SDS011;9750;48.730;10.294;2022-11-15T09:24:08;18.27;;;13.87;;
19231;SDS011;9750;48.730;10.294;2022-11-15T09:26:36;20.53;;;15.57;;
19231;SDS011;9750;48.730;10.294;2022-11-15T09:29:03;18.67;;;14.70;;
19231;SDS011;9750;48.730;10.294;2022-11-15T09:31:30;19.57;;;13.67;;
19231;SDS011;9750;48.730;10.294;2022-11-15T09:33:58;16.90;;;14.27;;
19231;SDS011;9750;48.730;10.294;2022-11-15T09:36:25;17.87;;;15.07;;
19231;SDS011;9750;48.730;10.294;2022-11-15T09:38:53;22.43;;;19.70;;
19231;SDS011;9750;48.730;10.294;2022-11-15T09:41:29;21.90;;;19.53;;
19231;SDS011;9750;48.730;10.294;2022-11-15T09:47:13;23.87;;;19.40;;
19231;SDS011;9750;48.730;10.294;2022-11-15T09:52:35;22.80;;;19.63;;
19231;SDS011;9750;48.730;10.294;2022-11-15T09:55:07;19.80;;;16.63;;
19231;SDS011;9750;48.730;10.294;2022-11-15T09:57:40;20.27;;;17.60;;
19231;SDS011;9750;48.730;10.294;2022-11-15T10:00:16;20.97;;;18.70;;
19231;SDS011;9750;48.730;10.294;2022-11-15T10:03:02;27.40;;;23.10;;
19231;SDS011;9750;48.730;10.294;2022-11-15T10:05:37;23.30;;;19.73;;
19231;SDS011;9750;48.730;10.294;2022-11-15T10:08:11;11.60;;;8.70;;
19231;SDS011;9750;48.730;10.294;2022-11-15T10:10:47;7.20;;;6.50;;
19231;SDS011;9750;48.730;10.294;2022-11-15T10:13:20;7.47;;;6.77;;
19231;SDS011;9750;48.730;10.294;2022-11-15T10:15:50;8.07;;;6.00;;
19231;SDS011;9750;48.730;10.294;2022-11-15T10:18:20;6.33;;;5.27;;
19231;SDS011;9750;48.730;10.294;2022-11-15T10:20:55;10.00;;;8.40;;
19231;SDS011;9750;48.730;10.294;2022-11-15T10:23:24;9.83;;;8.70;;
19231;SDS011;9750;48.730;10.294;2022-11-15T10:25:54;7.53;;;6.43;;
19231;SDS011;9750;48.730;10.294;2022-11-15T10:28:26;6.03;;;5.03;;
19231;SDS011;9750;48.730;10.294;2022-11-15T10:30:55;5.90;;;5.40;;
19231;SDS011;9750;48.730;10.294;2022-11-15T10:33:25;5.43;;;4.93;;
19231;SDS011;9750;48.730;10.294;2022-11-15T10:38:51;6.07;;;5.47;;
19231;SDS011;9750;48.730;10.294;2022-11-15T10:41:35;5.50;;;5.00;;
19231;SDS011;9750;48.730;10.294;2022-11-15T10:47:05;5.47;;;4.97;;
19231;SDS011;9750;48.730;10.294;2022-11-15T10:49:56;5.73;;;4.83;;
19231;SDS011;9750;48.730;10.294;2022-11-15T10:52:33;4.40;;;4.00;;
19231;SDS011;9750;48.730;10.294;2022-11-15T10:55:18;4.93;;;4.43;;
19231;SDS011;9750;48.730;10.294;2022-11-15T10:57:50;5.07;;;4.67;;
19231;SDS011;9750;48.730;10.294;2022-11-15T11:00:36;4.83;;;4.33;;
19231;SDS011;9750;48.730;10.294;2022-11-15T11:03:05;4.93;;;4.43;;
19231;SDS011;9750;48.730;10.294;2022-11-15T11:05:49;5.33;;;4.93;;
19231;SDS011;9750;48.730;10.294;2022-11-15T11:08:30;5.53;;;4.50;;
19231;SDS011;9750;48.730;10.294;2022-11-15T11:10:59;4.67;;;4.27;;
19231;SDS011;9750;48.730;10.294;2022-11-15T11:13:29;5.50;;;3.90;;
19231;SDS011;9750;48.730;10.294;2022-11-15T11:16:03;6.03;;;4.03;;
19231;SDS011;9750;48.730;10.294;2022-11-15T11:18:53;5.00;;;4.30;;
19231;SDS011;9750;48.730;10.294;2022-11-15T11:21:26;4.60;;;4.20;;
19231;SDS011;9750;48.730;10.294;2022-11-15T11:24:06;3.90;;;3.60;;
19231;SDS011;9750;48.730;10.294;2022-11-15T11:26:42;4.97;;;4.40;;
19231;SDS011;9750;48.730;10.294;2022-11-15T11:29:25;6.20;;;5.40;;
19231;SDS011;9750;48.730;10.294;2022-11-15T11:32:04;5.13;;;3.90;;
19231;SDS011;9750;48.730;10.294;2022-11-15T11:34:50;3.90;;;3.40;;
19231;SDS011;9750;48.730;10.294;2022-11-15T11:37:27;4.50;;;4.10;;
19231;SDS011;9750;48.730;10.294;2022-11-15T11:40:05;3.93;;;3.63;;
19231;SDS011;9750;48.730;10.294;2022-11-15T11:42:44;4.30;;;3.90;;
19231;SDS011;9750;48.730;10.294;2022-11-15T11:45:24;3.83;;;3.53;;
19231;SDS011;9750;48.730;10.294;2022-11-15T11:48:10;4.20;;;3.47;;
19231;SDS011;9750;48.730;10.294;2022-11-15T11:50:40;3.90;;;3.50;;
19231;SDS011;9750;48.730;10.294;2022-11-15T11:53:11;4.00;;;3.33;;
19231;SDS011;9750;48.730;10.294;2022-11-15T11:55:42;8.27;;;6.67;;
19231;SDS011;9750;48.730;10.294;2022-11-15T11:58:13;9.20;;;7.37;;
19231;SDS011;9750;48.730;10.294;2022-11-15T12:00:45;6.53;;;5.80;;
19231;SDS011;9750;48.730;10.294;2022-11-15T12:03:19;4.27;;;3.87;;
19231;SDS011;9750;48.730;10.294;2022-11-15T12:05:53;8.30;;;6.10;;
19231;SDS011;9750;48.730;10.294;2022-11-15T12:08:25;3.90;;;3.53;;
19231;SDS011;9750;48.730;10.294;2022-11-15T12:11:01;5.77;;;3.40;;
19231;SDS011;9750;48.730;10.294;2022-11-15T12:13:35;3.50;;;3.20;;
19231;SDS011;9750;48.730;10.294;2022-11-15T12:16:06;5.67;;;4.60;;
19231;SDS011;9750;48.730;10.294;2022-11-15T12:18:40;4.40;;;3.80;;
19231;SDS011;9750;48.730;10.294;2022-11-15T12:21:13;4.13;;;3.53;;
19231;SDS011;9750;48.730;10.294;2022-11-15T12:23:47;3.50;;;3.20;;
19231;SDS011;9750;48.730;10.294;2022-11-15T12:26:19;3.60;;;2.93;;
19231;SDS011;9750;48.730;10.294;2022-11-15T12:28:51;3.47;;;3.00;;
19231;SDS011;9750;48.730;10.294;2022-11-15T12:31:23;3.30;;;3.00;;
19231;SDS011;9750;48.730;10.294;2022-11-15T12:33:58;3.50;;;3.20;;
19231;SDS011;9750;48.730;10.294;2022-11-15T12:36:39;3.20;;;2.90;;
19231;SDS011;9750;48.730;10.294;2022-11-15T12:39:09;3.40;;;3.10;;
19231;SDS011;9750;48.730;10.294;2022-11-15T12:41:38;3.50;;;3.20;;
19231;SDS011;9750;48.730;10.294;2022-11-15T12:44:10;3.40;;;3.10;;
19231;SDS011;9750;48.730;10.294;2022-11-15T12:49:45;2.80;;;2.60;;
19231;SDS011;9750;48.730;10.294;2022-11-15T12:52:13;3.73;;;2.90;;
19231;SDS011;9750;48.730;10.294;2022-11-15T12:54:57;4.07;;;2.60;;
19231;SDS011;9750;48.730;10.294;2022-11-15T12:57:31;4.00;;;2.80;;
19231;SDS011;9750;48.730;10.294;2022-11-15T13:00:00;3.47;;;2.93;;
19231;SDS011;9750;48.730;10.294;2022-11-15T13:02:32;3.03;;;2.73;;
19231;SDS011;9750;48.730;10.294;2022-11-15T13:17:29;3.17;;;2.87;;
19231;SDS011;9750;48.730;10.294;2022-11-15T13:20:01;3.40;;;3.10;;
19231;SDS011;9750;48.730;10.294;2022-11-15T13:22:45;3.43;;;3.13;;
19231;SDS011;9750;48.730;10.294;2022-11-15T13:25:36;3.47;;;3.17;;
19231;SDS011;9750;48.730;10.294;2022-11-15T13:28:23;3.97;;;3.20;;
19231;SDS011;9750;48.730;10.294;2022-11-15T13:30:56;3.43;;;3.13;;
19231;SDS011;9750;48.730;10.294;2022-11-15T13:33:26;4.00;;;3.60;;
19231;SDS011;9750;48.730;10.294;2022-11-15T13:35:58;4.07;;;3.43;;
19231;SDS011;9750;48.730;10.294;2022-11-15T13:38:27;3.63;;;3.33;;
19231;SDS011;9750;48.730;10.294;2022-11-15T13:40:58;3.87;;;3.47;;
19231;SDS011;9750;48.730;10.294;2022-11-15T13:43:36;4.40;;;3.80;;
19231;SDS011;9750;48.730;10.294;2022-11-15T13:46:04;3.50;;;3.20;;
19231;SDS011;9750;48.730;10.294;2022-11-15T13:48:34;3.67;;;3.30;;
19231;SDS011;9750;48.730;10.294;2022-11-15T13:51:02;3.73;;;3.43;;
19231;SDS011;9750;48.730;10.294;2022-11-15T13:53:33;5.70;;;4.20;;
19231;SDS011;9750;48.730;10.294;2022-11-15T13:56:08;4.00;;;3.70;;
19231;SDS011;9750;48.730;10.294;2022-11-15T13:58:37;5.50;;;5.00;;
19231;SDS011;9750;48.730;10.294;2022-11-15T14:01:05;8.83;;;6.90;;
19231;SDS011;9750;48.730;10.294;2022-11-15T14:03:34;4.97;;;4.40;;
19231;SDS011;9750;48.730;10.294;2022-11-15T14:06:08;7.93;;;6.20;;
19231;SDS011;9750;48.730;10.294;2022-11-15T14:11:12;10.17;;;7.57;;
19231;SDS011;9750;48.730;10.294;2022-11-15T14:14:02;24.57;;;16.50;;
19231;SDS011;9750;48.730;10.294;2022-11-15T14:16:41;5.80;;;5.20;;
19231;SDS011;9750;48.730;10.294;2022-11-15T14:19:10;19.40;;;14.20;;
19231;SDS011;9750;48.730;10.294;2022-11-15T14:25:05;14.40;;;11.20;;
19231;SDS011;9750;48.730;10.294;2022-11-15T14:27:42;8.87;;;7.97;;
19231;SDS011;9750;48.730;10.294;2022-11-15T14:30:13;7.23;;;4.93;;
19231;SDS011;9750;48.730;10.294;2022-11-15T14:32:43;5.50;;;5.00;;
19231;SDS011;9750;48.730;10.294;2022-11-15T14:35:12;5.20;;;4.67;;
19231;SDS011;9750;48.730;10.294;2022-11-15T14:37:43;5.70;;;4.77;;
19231;SDS011;9750;48.730;10.294;2022-11-15T14:40:12;6.10;;;4.40;;
19231;SDS011;9750;48.730;10.294;2022-11-15T14:42:42;5.43;;;4.93;;
19231;SDS011;9750;48.730;10.294;2022-11-15T14:45:12;7.77;;;6.30;;
19231;SDS011;9750;48.730;10.294;2022-11-15T14:47:41;6.63;;;5.57;;
19231;SDS011;9750;48.730;10.294;2022-11-15T14:50:11;4.87;;;4.37;;
19231;SDS011;9750;48.730;10.294;2022-11-15T14:52:39;7.03;;;6.33;;
19231;SDS011;9750;48.730;10.294;2022-11-15T14:55:13;5.90;;;5.40;;
19231;SDS011;9750;48.730;10.294;2022-11-15T14:57:46;4.37;;;3.97;;
19231;SDS011;9750;48.730;10.294;2022-11-15T15:00:13;4.50;;;4.10;;
19231;SDS011;9750;48.730;10.294;2022-11-15T15:02:42;5.17;;;4.67;;
19231;SDS011;9750;48.730;10.294;2022-11-15T15:05:13;5.10;;;4.60;;
19231;SDS011;9750;48.730;10.294;2022-11-15T15:07:41;5.83;;;5.17;;
19231;SDS011;9750;48.730;10.294;2022-11-15T15:10:09;8.57;;;5.70;;
19231;SDS011;9750;48.730;10.294;2022-11-15T15:12:37;6.00;;;5.50;;
19231;SDS011;9750;48.730;10.294;2022-11-15T15:15:09;5.37;;;4.87;;
19231;SDS011;9750;48.730;10.294;2022-11-15T15:17:40;6.13;;;5.60;;
19231;SDS011;9750;48.730;10.294;2022-11-15T15:23:16;7.03;;;6.37;;
19231;SDS011;9750;48.730;10.294;2022-11-15T15:25:45;8.00;;;7.20;;
19231;SDS011;9750;48.730;10.294;2022-11-15T15:28:14;8.90;;;7.50;;
19231;SDS011;9750;48.730;10.294;2022-11-15T15:30:43;7.23;;;6.53;;
19231;SDS011;9750;48.730;10.294;2022-11-15T15:33:10;7.90;;;7.07;;
19231;SDS011;9750;48.730;10.294;2022-11-15T15:35:38;8.10;;;7.27;;
19231;SDS011;9750;48.730;10.294;2022-11-15T15:38:05;9.17;;;7.70;;
19231;SDS011;9750;48.730;10.294;2022-11-15T15:40:32;8.43;;;7.60;;
19231;SDS011;9750;48.730;10.294;2022-11-15T15:43:00;10.03;;;8.13;;
19231;SDS011;9750;48.730;10.294;2022-11-15T15:45:27;9.33;;;8.30;;
19231;SDS011;9750;48.730;10.294;2022-11-15T15:47:56;11.70;;;8.63;;
19231;SDS011;9750;48.730;10.294;2022-11-15T15:50:24;9.03;;;8.10;;
19231;SDS011;9750;48.730;10.294;2022-11-15T15:52:54;10.33;;;8.47;;
19231;SDS011;9750;48.730;10.294;2022-11-15T15:55:22;11.20;;;9.50;;
19231;SDS011;9750;48.730;10.294;2022-11-15T15:57:50;10.97;;;9.30;;